Springfield Beckley Municipal Airport Springfield US
ICAO: KSGH
IATA: SGH
Category: Medium
Scheduled Services: No

Elevation: 1051 ft
TransAlt. 18000 ft.

Airport Communications:
DAYTON APP/DEP:118.85
AWSS:134.975
ATIS:25.787
CTAF:120.7
GND:121.7
178 FW OPS:141.7
TWR:120.7
UNICOM:122.95

KSGH Zoom In..

If you have problems with the map follow the link
https://www.worldairports.se/pages/airport.php?
ICAO=KSGH

Runways:

(A) RW 06 length 9009 ft width 150 ft
---- / hdg 58

(B) RW 15 length 5499 ft width 100 ft
---- / hdg 148

(C) RW 24 length 9009 ft width 150 ft
ILS 111.30 / hdg 238

(D) RW 33 length 5499 ft width 100 ft
---- / hdg 328

Location; KSGH
Day. 14 / Time. 18.19 Zulu
* Altimeter: 29.62
* Temperature: 06° c. 42.8°f.
* Wind from: 280° Speed 11 kn.
Dewpoint: 02° c.
Visibility: 10 Statute Miles.
Clouds: Few 1800 ft.
Clouds: Scattered 8000 ft.
Clouds: Broken 12000 ft.

KSGH 141819Z AUTO 28011KT 10SM FEW018 SCT080 BKN120 06/02 A2962 RMK AO2


Wind From 280°
Speed 11 kn.

 
 
jpsmedia worldairports.se 2019   terms of use